createdAt,value
2022-09-01T00:01:55.809Z,100.00
2022-09-01T00:04:45.199Z,100.00
2022-09-01T00:07:31.907Z,100.00
2022-09-01T00:10:18.443Z,100.00
2022-09-01T00:13:07.053Z,100.00
2022-09-01T00:15:54.479Z,100.00
2022-09-01T00:18:42.170Z,100.00
2022-09-01T00:21:34.254Z,100.00
2022-09-01T00:24:21.486Z,100.00
2022-09-01T00:27:08.075Z,100.00
2022-09-01T00:29:56.849Z,100.00
2022-09-01T00:32:46.622Z,100.00
2022-09-01T00:35:37.072Z,100.00
2022-09-01T00:38:24.325Z,100.00
2022-09-01T00:41:11.798Z,100.00
2022-09-01T00:44:12.090Z,100.00
2022-09-01T00:46:59.915Z,100.00
2022-09-01T00:49:49.442Z,100.00
2022-09-01T00:52:45.910Z,100.00
2022-09-01T00:55:34.558Z,100.00
2022-09-01T00:58:21.279Z,100.00
2022-09-01T01:01:10.204Z,100.00
2022-09-01T01:03:59.940Z,100.00
2022-09-01T01:07:01.713Z,100.00
2022-09-01T01:09:49.553Z,100.00
2022-09-01T01:12:40.294Z,100.00
2022-09-01T01:15:26.634Z,100.00
2022-09-01T01:18:14.559Z,100.00
2022-09-01T01:21:34.083Z,100.00
2022-09-01T01:24:27.061Z,100.00
2022-09-01T01:27:13.792Z,100.00
2022-09-01T01:30:02.258Z,100.00
2022-09-01T01:32:51.848Z,100.00
2022-09-01T01:35:38.402Z,100.00
2022-09-01T01:38:27.483Z,100.00
2022-09-01T01:41:17.590Z,100.00
2022-09-01T01:44:05.257Z,100.00
2022-09-01T01:46:54.578Z,100.00
2022-09-01T01:49:43.802Z,100.00
2022-09-01T01:52:30.933Z,100.00
2022-09-01T01:55:19.350Z,100.00
2022-09-01T01:58:08.080Z,100.00
2022-09-01T02:00:56.298Z,100.00
2022-09-01T02:03:43.174Z,100.00
2022-09-01T02:06:34.586Z,100.00
2022-09-01T02:09:23.253Z,100.00
2022-09-01T02:12:10.465Z,100.00
2022-09-01T02:15:00.441Z,100.00
2022-09-01T02:17:47.306Z,100.00
2022-09-01T02:20:33.750Z,100.00
2022-09-01T02:23:24.465Z,100.00
2022-09-01T02:26:17.024Z,100.00
2022-09-01T02:29:09.166Z,100.00
2022-09-01T02:32:00.070Z,100.00
2022-09-01T02:34:49.383Z,100.00
2022-09-01T02:37:39.325Z,100.00
2022-09-01T02:40:25.913Z,100.00
2022-09-01T02:43:14.895Z,100.00
2022-09-01T02:46:02.558Z,100.00
2022-09-01T02:48:51.410Z,100.00
2022-09-01T02:51:38.533Z,100.00
2022-09-01T02:54:25.730Z,100.00
2022-09-01T02:57:12.658Z,100.00
2022-09-01T02:59:59.173Z,100.00
2022-09-01T03:02:53.849Z,100.00
2022-09-01T03:05:40.138Z,100.00
2022-09-01T03:08:27.634Z,100.00
2022-09-01T03:11:14.338Z,100.00
2022-09-01T03:14:02.662Z,100.00
2022-09-01T03:16:49.424Z,100.00
2022-09-01T03:19:44.423Z,100.00
2022-09-01T03:22:31.234Z,100.00
2022-09-01T03:25:18.750Z,100.00
2022-09-01T03:28:09.606Z,100.00
2022-09-01T03:30:58.458Z,100.00
2022-09-01T03:33:46.119Z,100.00
2022-09-01T03:36:50.045Z,100.00
2022-09-01T03:39:41.646Z,100.00
2022-09-01T03:42:29.587Z,100.00
2022-09-01T03:45:20.355Z,100.00
2022-09-01T03:48:09.189Z,100.00
2022-09-01T03:51:02.569Z,100.00
2022-09-01T03:53:54.607Z,100.00
2022-09-01T03:56:43.017Z,100.00
2022-09-01T03:59:35.110Z,100.00
2022-09-01T04:02:22.942Z,100.00
2022-09-01T04:05:11.364Z,100.00
2022-09-01T04:08:02.482Z,100.00
2022-09-01T04:10:54.452Z,100.00
2022-09-01T04:13:42.473Z,100.00
2022-09-01T04:16:50.490Z,100.00
2022-09-01T04:19:39.338Z,100.00
2022-09-01T04:22:30.081Z,100.00
2022-09-01T04:25:23.015Z,100.00
2022-09-01T04:28:23.002Z,100.00
2022-09-01T04:31:18.624Z,100.00
2022-09-01T04:34:13.132Z,100.00
2022-09-01T04:37:02.422Z,100.00
2022-09-01T04:39:55.597Z,100.00
2022-09-01T04:42:42.934Z,100.00
2022-09-01T04:45:30.195Z,100.00
2022-09-01T04:48:17.421Z,100.00
2022-09-01T04:51:10.382Z,100.00
2022-09-01T04:54:14.721Z,100.00
2022-09-01T04:57:06.972Z,100.00
2022-09-01T04:59:59.788Z,100.00
2022-09-01T05:02:46.247Z,100.00
2022-09-01T05:05:43.072Z,100.00
2022-09-01T05:08:32.703Z,100.00
2022-09-01T05:11:21.114Z,100.00
2022-09-01T05:14:08.277Z,100.00
2022-09-01T05:16:58.861Z,100.00
2022-09-01T05:19:50.498Z,100.00
2022-09-01T05:22:39.275Z,100.00
2022-09-01T05:25:27.390Z,100.00
2022-09-01T05:28:17.866Z,100.00
2022-09-01T05:31:04.826Z,100.00
2022-09-01T05:33:53.102Z,100.00
2022-09-01T05:36:46.076Z,100.00
2022-09-01T05:39:33.233Z,100.00
2022-09-01T05:42:19.862Z,100.00
2022-09-01T05:45:08.443Z,100.00
2022-09-01T05:47:55.034Z,100.00
2022-09-01T05:50:46.762Z,100.00
2022-09-01T05:53:34.131Z,100.00
2022-09-01T05:56:21.091Z,100.00
2022-09-01T05:59:24.741Z,100.00
2022-09-01T06:02:15.223Z,100.00
2022-09-01T06:05:01.813Z,100.00
2022-09-01T06:07:51.986Z,100.00
2022-09-01T06:10:41.971Z,100.00
2022-09-01T06:13:28.166Z,100.00
2022-09-01T06:16:16.957Z,100.00
2022-09-01T06:19:03.623Z,100.00
2022-09-01T06:21:51.282Z,100.00
2022-09-01T06:24:39.788Z,100.00
2022-09-01T06:27:27.149Z,100.00
2022-09-01T06:30:22.574Z,100.00
2022-09-01T06:33:14.844Z,100.00
2022-09-01T06:36:09.374Z,100.00
2022-09-01T06:38:55.866Z,100.00
2022-09-01T06:41:42.225Z,100.00
2022-09-01T06:44:32.049Z,100.00
2022-09-01T06:47:24.269Z,100.00
2022-09-01T06:51:14.696Z,100.00
2022-09-01T06:53:37.265Z,100.00
2022-09-01T06:56:32.250Z,100.00
2022-09-01T06:59:20.489Z,100.00
2022-09-01T07:02:12.607Z,100.00
2022-09-01T07:08:28.710Z,100.00
2022-09-01T07:17:58.415Z,100.00
2022-09-01T07:21:05.471Z,100.00
2022-09-01T07:24:13.461Z,100.00
2022-09-01T07:27:19.894Z,100.00
2022-09-01T07:30:12.568Z,100.00
2022-09-01T07:33:41.585Z,100.00
2022-09-01T07:46:40.992Z,100.00
2022-09-01T07:49:51.400Z,100.00
2022-09-01T07:52:42.657Z,99.76
2022-09-01T07:55:31.939Z,99.75
2022-09-01T07:58:23.077Z,100.00
2022-09-01T08:01:20.710Z,99.36
2022-09-01T08:04:09.933Z,93.87
2022-09-01T08:06:57.685Z,87.74
2022-09-01T08:09:44.425Z,86.02
2022-09-01T08:12:33.584Z,86.36
2022-09-01T08:18:26.490Z,85.26
2022-09-01T08:21:13.245Z,85.06
2022-09-01T08:24:15.864Z,83.74
2022-09-01T08:27:02.514Z,83.64
2022-09-01T08:29:49.502Z,90.23
2022-09-01T08:32:37.427Z,88.86
2022-09-01T08:35:24.415Z,84.21
2022-09-01T08:38:12.826Z,77.92
2022-09-01T08:41:00.387Z,76.95
2022-09-01T08:43:57.980Z,73.51
2022-09-01T08:46:45.038Z,79.00
2022-09-01T08:49:43.872Z,75.89
2022-09-01T08:53:32.607Z,77.86
2022-09-01T08:56:19.859Z,76.51
2022-09-01T08:59:09.810Z,75.85
2022-09-01T09:02:40.145Z,74.65
2022-09-01T09:05:41.488Z,73.31
2022-09-01T09:08:40.157Z,71.75
2022-09-01T09:11:41.905Z,70.86
2022-09-01T09:14:36.573Z,70.12
2022-09-01T09:17:29.536Z,69.98
2022-09-01T09:20:15.862Z,68.77
2022-09-01T09:23:21.627Z,70.18
2022-09-01T09:26:08.409Z,70.71
2022-09-01T09:28:55.128Z,68.25
2022-09-01T09:31:49.862Z,72.57
2022-09-01T09:34:40.065Z,70.54
2022-09-01T09:37:30.418Z,70.16
2022-09-01T09:40:27.449Z,70.83
2022-09-01T09:43:16.029Z,71.73
2022-09-01T09:46:37.815Z,75.95
2022-09-01T09:49:34.881Z,70.08
2022-09-01T09:52:23.461Z,72.61
2022-09-01T09:55:29.860Z,70.59
2022-09-01T09:58:16.359Z,71.31
2022-09-01T10:01:15.206Z,71.55
2022-09-01T10:04:04.125Z,70.05
2022-09-01T10:06:50.386Z,71.03
2022-09-01T10:09:38.468Z,70.95
2022-09-01T10:12:27.137Z,73.26
2022-09-01T10:15:23.009Z,74.43
2022-09-01T10:18:29.708Z,73.19
2022-09-01T10:21:28.181Z,71.10
2022-09-01T10:24:31.736Z,69.06
2022-09-01T10:27:23.301Z,68.39
2022-09-01T10:30:20.538Z,70.12
2022-09-01T10:33:15.864Z,65.98
2022-09-01T10:36:07.984Z,61.99
2022-09-01T10:39:04.715Z,62.38
2022-09-01T10:41:59.726Z,62.57
2022-09-01T10:44:58.085Z,67.76
2022-09-01T10:47:44.916Z,64.53
2022-09-01T10:50:35.462Z,59.05
2022-09-01T10:53:34.750Z,59.03
2022-09-01T10:56:44.413Z,58.48
2022-09-01T10:59:32.785Z,57.44
2022-09-01T11:02:26.027Z,62.24
2022-09-01T11:05:16.255Z,60.37
2022-09-01T11:08:24.687Z,58.20
2022-09-01T11:11:29.701Z,60.75
2022-09-01T11:14:19.818Z,58.19
2022-09-01T11:17:21.112Z,57.03
2022-09-01T11:20:46.316Z,61.89
2022-09-01T11:23:34.411Z,60.87
2022-09-01T11:26:32.958Z,61.72
2022-09-01T11:29:51.358Z,55.37
2022-09-01T11:32:46.283Z,56.23
2022-09-01T11:35:33.644Z,57.88
2022-09-01T11:38:21.360Z,60.12
2022-09-01T11:41:07.881Z,55.67
2022-09-01T11:43:58.190Z,57.17
2022-09-01T11:46:45.344Z,57.10
2022-09-01T11:49:37.034Z,56.85
2022-09-01T11:52:27.314Z,60.34
2022-09-01T11:55:13.481Z,61.42
2022-09-01T11:58:00.610Z,60.00
2022-09-01T12:00:47.475Z,57.72
2022-09-01T12:03:36.981Z,57.69
2022-09-01T12:06:26.939Z,58.91
2022-09-01T12:09:13.127Z,59.57
2022-09-01T12:12:00.132Z,57.37
2022-09-01T12:15:07.152Z,61.63
2022-09-01T12:18:08.278Z,59.08
2022-09-01T12:21:00.139Z,58.94
2022-09-01T12:23:47.175Z,58.94
2022-09-01T12:26:33.790Z,56.56
2022-09-01T12:29:23.123Z,53.85
2022-09-01T12:32:11.129Z,57.50
2022-09-01T12:35:10.870Z,54.18
2022-09-01T12:38:21.694Z,56.53
2022-09-01T12:41:37.684Z,56.74
2022-09-01T12:44:46.644Z,51.63
2022-09-01T12:47:33.434Z,49.94
2022-09-01T12:50:19.642Z,54.02
2022-09-01T12:53:15.930Z,51.94
2022-09-01T12:56:17.876Z,47.96
2022-09-01T12:59:26.308Z,46.79
2022-09-01T13:02:38.303Z,47.61
2022-09-01T13:05:30.601Z,47.06
2022-09-01T13:08:19.894Z,48.25
2022-09-01T13:11:11.202Z,46.83
2022-09-01T13:13:58.218Z,47.49
2022-09-01T13:16:45.437Z,47.48
2022-09-01T13:19:32.260Z,45.91
2022-09-01T13:22:18.805Z,46.55
2022-09-01T13:25:05.958Z,50.09
2022-09-01T13:27:52.940Z,51.14
2022-09-01T13:30:40.364Z,45.84
2022-09-01T13:33:28.302Z,46.82
2022-09-01T13:39:22.782Z,47.06
2022-09-01T13:42:10.339Z,51.26
2022-09-01T13:44:57.001Z,50.62
2022-09-01T13:53:59.661Z,51.19
2022-09-01T13:56:46.402Z,53.58
2022-09-01T13:59:33.158Z,51.12
2022-09-01T14:02:19.737Z,54.29
2022-09-01T14:05:06.171Z,51.14
2022-09-01T14:07:53.756Z,52.83
2022-09-01T14:10:44.050Z,52.79
2022-09-01T14:13:31.477Z,51.07
2022-09-01T14:16:18.503Z,51.38
2022-09-01T14:19:05.237Z,52.69
2022-09-01T14:21:51.907Z,52.79
2022-09-01T14:24:40.827Z,55.05
2022-09-01T14:27:27.740Z,53.28
2022-09-01T14:30:19.073Z,55.56
2022-09-01T14:33:05.429Z,55.01
2022-09-01T14:35:51.819Z,54.18
2022-09-01T14:38:38.817Z,53.16
2022-09-01T14:41:27.181Z,56.46
2022-09-01T14:44:13.557Z,55.53
2022-09-01T14:47:00.239Z,53.27
2022-09-01T14:49:46.956Z,54.19
2022-09-01T14:52:34.157Z,51.97
2022-09-01T14:55:22.691Z,54.61
2022-09-01T14:58:09.078Z,52.16
2022-09-01T15:01:03.523Z,53.15
2022-09-01T15:03:54.647Z,52.73
2022-09-01T15:06:41.016Z,46.99
2022-09-01T15:09:27.462Z,50.15
2022-09-01T15:12:14.211Z,48.58
2022-09-01T15:15:01.566Z,50.15
2022-09-01T15:17:48.423Z,49.00
2022-09-01T15:20:46.188Z,48.07
2022-09-01T15:23:32.509Z,48.63
2022-09-01T15:26:19.012Z,53.24
2022-09-01T15:29:05.221Z,52.02
2022-09-01T15:31:51.687Z,52.15
2022-09-01T15:34:39.158Z,50.39
2022-09-01T15:37:25.565Z,52.12
2022-09-01T15:40:12.109Z,50.72
2022-09-01T15:42:59.495Z,51.10
2022-09-01T15:45:46.666Z,48.52
2022-09-01T15:48:33.162Z,49.53
2022-09-01T15:51:22.474Z,50.89
2022-09-01T15:54:12.222Z,49.96
2022-09-01T15:56:58.657Z,49.65
2022-09-01T15:59:45.373Z,49.27
2022-09-01T16:02:31.910Z,49.44
2022-09-01T16:05:18.778Z,49.80
2022-09-01T16:08:09.264Z,50.94
2022-09-01T16:10:55.700Z,51.32
2022-09-01T16:13:43.057Z,49.31
2022-09-01T16:16:41.584Z,52.13
2022-09-01T16:19:54.689Z,49.75
2022-09-01T16:22:53.670Z,46.52
2022-09-01T16:25:41.499Z,47.35
2022-09-01T16:28:31.574Z,49.29
2022-09-01T16:31:24.737Z,49.65
2022-09-01T16:34:18.754Z,49.64
2022-09-01T16:37:51.790Z,50.11
2022-09-01T16:40:56.326Z,48.61
2022-09-01T16:43:50.914Z,50.24
2022-09-01T16:46:49.499Z,51.66
2022-09-01T16:49:41.723Z,51.87
2022-09-01T16:52:32.658Z,51.65
2022-09-01T16:55:28.282Z,54.25
2022-09-01T16:58:24.180Z,52.63
2022-09-01T17:01:38.555Z,52.17
2022-09-01T17:04:40.430Z,52.34
2022-09-01T17:07:40.374Z,53.81
2022-09-01T17:10:42.164Z,54.78
2022-09-01T17:13:32.480Z,54.60
2022-09-01T17:16:29.301Z,55.62
2022-09-01T17:19:19.185Z,56.63
2022-09-01T17:22:14.425Z,56.06
2022-09-01T17:25:18.815Z,55.14
2022-09-01T17:28:16.609Z,55.65
2022-09-01T17:31:20.579Z,55.05
2022-09-01T17:34:27.897Z,55.41
2022-09-01T17:37:39.979Z,55.41
2022-09-01T17:40:44.884Z,56.13
2022-09-01T17:43:45.517Z,55.52
2022-09-01T17:46:38.010Z,58.63
2022-09-01T17:49:49.726Z,57.88
2022-09-01T17:52:59.537Z,56.87
2022-09-01T17:56:03.270Z,57.28
2022-09-01T17:59:16.008Z,57.76
2022-09-01T18:02:40.025Z,58.75
2022-09-01T18:05:27.646Z,58.97
2022-09-01T18:08:31.186Z,58.54
2022-09-01T18:11:33.134Z,59.55
2022-09-01T18:14:30.257Z,61.39
2022-09-01T18:17:32.152Z,63.84
2022-09-01T18:20:24.522Z,64.75
2022-09-01T18:23:18.034Z,64.45
2022-09-01T18:26:31.171Z,67.14
2022-09-01T18:29:17.902Z,68.96
2022-09-01T18:32:23.118Z,68.07
2022-09-01T18:35:26.609Z,69.05
2022-09-01T18:38:30.755Z,70.61
2022-09-01T18:41:32.062Z,70.82
2022-09-01T18:44:26.686Z,72.81
2022-09-01T18:47:15.457Z,75.19
2022-09-01T18:50:45.542Z,75.32
2022-09-01T18:53:50.731Z,77.77
2022-09-01T18:56:56.254Z,78.66
2022-09-01T18:59:48.474Z,80.15
2022-09-01T19:02:50.102Z,81.64
2022-09-01T19:05:45.897Z,84.35
2022-09-01T19:09:08.710Z,85.59
2022-09-01T19:12:01.682Z,86.84
2022-09-01T19:15:10.076Z,88.81
2022-09-01T19:18:26.142Z,90.50
2022-09-01T19:21:22.236Z,90.90
2022-09-01T19:24:20.714Z,92.42
2022-09-01T19:27:14.777Z,93.31
2022-09-01T19:30:05.695Z,93.85
2022-09-01T19:32:52.990Z,95.06
2022-09-01T19:35:42.647Z,94.73
2022-09-01T19:38:30.261Z,96.01
2022-09-01T19:41:33.077Z,96.44
2022-09-01T19:44:37.492Z,97.18
2022-09-01T19:47:26.982Z,99.13
2022-09-01T19:50:31.106Z,99.42
2022-09-01T19:53:46.909Z,99.94
2022-09-01T19:56:54.653Z,100.00
2022-09-01T19:59:52.923Z,100.00
2022-09-01T20:02:51.437Z,100.00
2022-09-01T20:05:54.978Z,100.00
2022-09-01T20:09:02.022Z,100.00
2022-09-01T20:11:55.996Z,100.00
2022-09-01T20:14:51.596Z,100.00
2022-09-01T20:17:41.717Z,100.00
2022-09-01T20:20:36.801Z,100.00
2022-09-01T20:23:50.075Z,100.00
2022-09-01T20:26:46.930Z,100.00
2022-09-01T20:29:55.650Z,100.00
2022-09-01T20:33:00.505Z,100.00
2022-09-01T20:36:12.481Z,100.00
2022-09-01T20:39:34.938Z,100.00
2022-09-01T20:42:42.836Z,100.00
2022-09-01T20:45:29.742Z,100.00
2022-09-01T20:48:24.590Z,100.00
2022-09-01T20:51:30.066Z,100.00
2022-09-01T20:54:37.655Z,100.00
2022-09-01T20:57:40.149Z,100.00
2022-09-01T21:00:29.119Z,100.00
2022-09-01T21:03:47.892Z,100.00
2022-09-01T21:06:48.849Z,100.00
2022-09-01T21:10:12.895Z,100.00
2022-09-01T21:13:33.414Z,100.00
2022-09-01T21:16:56.413Z,100.00
2022-09-01T21:20:08.565Z,100.00
2022-09-01T21:22:55.497Z,100.00
2022-09-01T21:25:45.137Z,100.00
2022-09-01T21:28:31.621Z,100.00
2022-09-01T21:31:19.286Z,100.00
2022-09-01T21:34:05.634Z,100.00
2022-09-01T21:36:52.118Z,100.00
2022-09-01T21:39:41.875Z,100.00
2022-09-01T21:42:32.855Z,100.00
2022-09-01T21:45:19.609Z,100.00
2022-09-01T21:48:06.504Z,100.00
2022-09-01T21:50:53.154Z,100.00
2022-09-01T21:53:39.309Z,100.00
2022-09-01T21:56:26.111Z,100.00
2022-09-01T21:59:16.980Z,100.00
2022-09-01T22:02:05.817Z,100.00
2022-09-01T22:04:52.442Z,100.00
2022-09-01T22:07:41.573Z,100.00
2022-09-01T22:10:29.638Z,100.00
2022-09-01T22:13:20.625Z,100.00
2022-09-01T22:16:07.309Z,100.00
2022-09-01T22:18:53.675Z,100.00
2022-09-01T22:21:41.743Z,100.00
2022-09-01T22:24:28.482Z,100.00
2022-09-01T22:27:15.017Z,100.00
2022-09-01T22:30:02.580Z,100.00
2022-09-01T22:32:49.027Z,100.00
2022-09-01T22:35:40.682Z,100.00
2022-09-01T22:38:27.157Z,100.00
2022-09-01T22:41:18.236Z,100.00
2022-09-01T22:44:06.415Z,100.00
2022-09-01T22:46:52.810Z,100.00
2022-09-01T22:49:39.269Z,100.00
2022-09-01T22:52:25.787Z,100.00
2022-09-01T22:55:13.560Z,100.00
2022-09-01T22:57:59.879Z,100.00
2022-09-01T23:00:51.521Z,100.00
2022-09-01T23:03:38.447Z,100.00
2022-09-01T23:06:28.112Z,100.00
2022-09-01T23:09:15.673Z,100.00
2022-09-01T23:12:02.135Z,100.00
2022-09-01T23:14:48.329Z,100.00
2022-09-01T23:17:37.759Z,100.00
2022-09-01T23:20:24.162Z,100.00
2022-09-01T23:23:10.462Z,100.00
2022-09-01T23:25:56.871Z,100.00
2022-09-01T23:28:44.695Z,100.00
2022-09-01T23:31:33.431Z,100.00
2022-09-01T23:34:20.039Z,100.00
2022-09-01T23:37:07.036Z,100.00
2022-09-01T23:39:53.649Z,100.00
2022-09-01T23:42:41.377Z,100.00
2022-09-01T23:45:29.573Z,100.00
2022-09-01T23:48:24.293Z,100.00
2022-09-01T23:51:11.422Z,100.00
2022-09-01T23:54:02.314Z,100.00
2022-09-01T23:56:48.974Z,100.00
2022-09-01T23:59:35.528Z,100.00
